Time;durP1;ratioP1;P1;durP2;ratioP2;P2;SDS_P1;SDS_P2;PMS_P1;PMS_P2;Temp;Humidity;BMP_temperature;BMP_pressure;BME280_temperature;BME280_humidity;BME280_pressure;Samples;Min_cycle;Max_cycle;Signal;HPM_P1;HPM_P2
2022/03/18 00:00:56;;;;;;;47.27;28.77;;;;;;;1.58;62.00;98210.03;1731862;81;21240;-80
2022/03/18 00:03:22;;;;;;;42.55;27.70;;;;;;;1.57;62.28;98219.91;1740028;82;20981;-80
2022/03/18 00:05:48;;;;;;;34.15;23.35;;;;;;;1.56;62.26;98223.38;1744953;82;21355;-80
2022/03/18 00:08:14;;;;;;;27.93;18.52;;;;;;;1.57;62.42;98219.91;1745900;82;20953;-80
2022/03/18 00:10:40;;;;;;;27.82;17.50;;;;;;;1.58;62.74;98229.25;1732182;82;20964;-80
2022/03/18 00:13:06;;;;;;;28.50;19.00;;;;;;;1.56;62.97;98228.51;1740774;81;20965;-80
2022/03/18 00:15:32;;;;;;;32.73;22.27;;;;;;;1.57;62.93;98228.88;1745235;81;20981;-80
2022/03/18 00:17:58;;;;;;;29.50;19.65;;;;;;;1.57;62.98;98234.00;1764026;81;21337;-80
2022/03/18 00:20:24;;;;;;;27.17;16.82;;;;;;;1.56;62.90;98229.79;1738644;81;20985;-80
2022/03/18 00:22:50;;;;;;;20.90;14.43;;;;;;;1.56;62.75;98228.51;1762838;81;21012;-80
2022/03/18 00:25:17;;;;;;;19.30;13.78;;;;;;;1.55;62.82;98225.57;1753527;81;21383;-80
2022/03/18 00:27:43;;;;;;;18.37;12.78;;;;;;;1.53;63.29;98222.27;1750047;81;20981;-80
2022/03/18 00:30:16;;;;;;;18.87;12.47;;;;;;;1.52;63.81;98225.74;1750684;81;20973;-80
2022/03/18 00:32:42;;;;;;;22.02;12.93;;;;;;;1.50;64.23;98224.55;1740499;81;20997;-80
2022/03/18 00:35:09;;;;;;;17.82;12.23;;;;;;;1.51;64.63;98221.52;1754596;81;21346;-80
2022/03/18 00:37:37;;;;;;;17.48;13.18;;;;;;;1.50;64.47;98224.55;1746852;81;21331;-80
2022/03/18 00:40:04;;;;;;;18.32;13.08;;;;;;;1.50;64.65;98223.27;1760048;81;21096;-80
2022/03/18 00:42:31;;;;;;;20.35;12.93;;;;;;;1.55;64.84;98228.14;1754807;81;21369;-80
2022/03/18 00:44:59;;;;;;;17.67;12.93;;;;;;;1.59;64.90;98224.95;1739413;81;20961;-79
2022/03/18 00:52:53;;;;;;;15.60;12.70;;;;;;;1.51;64.73;98233.05;1754674;81;21426;-80
2022/03/18 00:55:19;;;;;;;18.92;12.93;;;;;;;1.46;64.91;98222.20;1739139;81;20980;-80
2022/03/18 00:57:45;;;;;;;17.52;13.55;;;;;;;1.46;65.33;98227.32;1745541;81;21041;-79
2022/03/18 01:00:12;;;;;;;20.23;12.88;;;;;;;1.48;65.11;98227.64;1741409;81;21296;-80
2022/03/18 01:02:37;;;;;;;18.95;13.22;;;;;;;1.48;64.92;98226.36;1755541;81;21363;-80
2022/03/18 01:05:04;;;;;;;33.35;21.82;;;;;;;1.50;65.02;98228.84;1750727;81;20979;-80
2022/03/18 01:07:30;;;;;;;31.57;20.62;;;;;;;1.47;65.04;98228.55;1764377;81;21067;-80
2022/03/18 01:09:57;;;;;;;60.23;33.75;;;;;;;1.46;64.97;98231.16;1749776;81;21108;-80
2022/03/18 01:12:23;;;;;;;60.48;34.35;;;;;;;1.42;64.36;98227.12;1729654;81;21064;-80
2022/03/18 01:14:49;;;;;;;55.33;33.88;;;;;;;1.30;64.61;98231.16;1754867;81;21092;-80
2022/03/18 01:17:15;;;;;;;60.95;34.78;;;;;;;1.24;64.41;98227.61;1742214;81;21036;-80
2022/03/18 01:19:42;;;;;;;64.42;36.80;;;;;;;1.20;64.44;98224.84;1761556;80;20953;-80
2022/03/18 01:22:10;;;;;;;59.77;34.08;;;;;;;1.19;64.40;98213.78;1760785;80;21274;-80
2022/03/18 01:24:37;;;;;;;58.17;34.58;;;;;;;1.18;64.28;98218.98;1757606;81;20925;-80
2022/03/18 01:27:05;;;;;;;45.43;26.90;;;;;;;1.17;64.26;98222.00;1752534;81;21016;-80
2022/03/18 01:29:31;;;;;;;24.02;16.48;;;;;;;1.17;64.37;98225.01;1713980;83;21029;-80
2022/03/18 01:31:57;;;;;;;20.70;14.15;;;;;;;1.15;64.55;98223.81;1747027;81;20934;-80
2022/03/18 01:34:23;;;;;;;28.62;16.35;;;;;;;1.14;64.64;98218.77;1743832;81;20984;-80
2022/03/18 01:36:49;;;;;;;25.30;17.00;;;;;;;1.15;64.65;98221.70;1737073;81;20979;-80
2022/03/18 01:39:15;;;;;;;16.80;12.98;;;;;;;1.14;64.47;98220.05;1761795;81;21047;-80
2022/03/18 01:41:42;;;;;;;17.75;12.82;;;;;;;1.13;65.08;98216.63;1736806;81;21398;-80
2022/03/18 01:44:11;;;;;;;17.42;12.13;;;;;;;1.12;65.56;98216.72;1753662;81;21008;-79
2022/03/18 01:46:37;;;;;;;18.25;12.55;;;;;;;1.11;65.75;98217.16;1767025;81;20957;-80
2022/03/18 01:49:05;;;;;;;17.67;12.40;;;;;;;1.11;66.08;98218.45;1743624;81;20972;-80
2022/03/18 01:51:31;;;;;;;18.55;11.93;;;;;;;1.11;66.00;98215.89;1736871;81;21155;-80
2022/03/18 01:56:41;;;;;;;18.95;12.75;;;;;;;1.13;65.93;98221.75;1744697;81;21036;-80
2022/03/18 01:59:07;;;;;;;17.25;12.58;;;;;;;1.14;65.84;98224.72;1732262;81;20921;-80
2022/03/18 02:01:32;;;;;;;19.10;13.75;;;;;;;1.14;65.81;98226.45;1755227;81;21775;-80
2022/03/18 02:03:58;;;;;;;19.00;13.90;;;;;;;1.10;65.55;98224.47;1764033;81;20969;-80
2022/03/18 02:06:24;;;;;;;22.48;16.32;;;;;;;1.08;65.42;98227.57;1756384;81;20937;-80
2022/03/18 02:08:50;;;;;;;17.98;13.25;;;;;;;1.08;65.43;98233.14;1766362;81;20961;-80
2022/03/18 02:11:15;;;;;;;19.42;13.72;;;;;;;1.10;65.69;98237.73;1754679;81;20963;-80
2022/03/18 02:13:41;;;;;;;19.73;13.72;;;;;;;1.10;65.80;98232.16;1737754;81;21395;-80
2022/03/18 02:16:07;;;;;;;21.77;13.90;;;;;;;1.09;65.67;98233.06;1743922;81;21463;-80
2022/03/18 02:18:33;;;;;;;18.90;13.08;;;;;;;1.10;65.65;98236.45;1734509;81;21100;-80
2022/03/18 02:20:59;;;;;;;19.65;13.83;;;;;;;1.09;65.47;98238.19;1755406;80;21108;-80
2022/03/18 02:23:25;;;;;;;22.27;14.10;;;;;;;1.08;65.23;98239.09;1764288;81;21447;-80
2022/03/18 02:25:50;;;;;;;20.80;15.45;;;;;;;1.06;65.07;98240.91;1752046;81;20944;-80
2022/03/18 02:28:16;;;;;;;21.82;14.00;;;;;;;1.05;64.84;98240.53;1749773;81;20976;-80
2022/03/18 02:30:42;;;;;;;25.00;16.75;;;;;;;1.05;64.78;98249.49;1746379;81;21347;-80
2022/03/18 02:33:11;;;;;;;26.73;16.82;;;;;;;1.04;64.97;98246.55;1735598;82;20988;-80
2022/03/18 02:35:36;;;;;;;27.73;18.50;;;;;;;1.04;64.95;98246.55;1737065;81;21003;-80
2022/03/18 02:38:02;;;;;;;32.48;18.07;;;;;;;1.03;64.63;98251.76;1748123;81;20971;-80
2022/03/18 02:40:28;;;;;;;32.00;19.17;;;;;;;1.03;64.98;98250.48;1750413;81;20961;-80
2022/03/18 02:42:54;;;;;;;29.70;20.48;;;;;;;1.01;64.93;98253.11;1752074;81;20968;-80
2022/03/18 02:45:21;;;;;;;32.17;21.95;;;;;;;1.01;64.87;98252.29;1735393;81;21028;-80
2022/03/18 02:47:47;;;;;;;32.90;21.82;;;;;;;1.00;64.61;98247.63;1739304;81;20957;-80
2022/03/18 02:50:13;;;;;;;29.12;19.95;;;;;;;1.01;64.70;98251.02;1763756;81;21327;-80
2022/03/18 02:52:38;;;;;;;30.62;19.65;;;;;;;1.01;64.64;98251.02;1755905;81;21008;-80
2022/03/18 02:55:05;;;;;;;25.95;18.77;;;;;;;1.00;64.75;98259.14;1733457;81;21000;-80
2022/03/18 02:57:32;;;;;;;27.30;19.07;;;;;;;0.99;64.99;98249.81;1734885;81;20968;-80
2022/03/18 02:59:59;;;;;;;32.28;20.00;;;;;;;0.98;64.86;98250.72;1755905;81;21004;-80
2022/03/18 03:02:25;;;;;;;33.90;19.20;;;;;;;0.97;64.59;98249.48;1724127;81;21388;-80
2022/03/18 03:10:21;;;;;;;25.08;17.92;;;;;;;0.95;64.96;98266.66;1759835;81;21013;-80
2022/03/18 03:12:49;;;;;;;24.92;15.98;;;;;;;0.93;64.91;98272.30;1734942;81;21360;-80
2022/03/18 03:15:16;;;;;;;21.35;14.90;;;;;;;0.90;64.80;98271.55;1749773;81;21092;-80
2022/03/18 03:17:42;;;;;;;19.52;14.23;;;;;;;0.88;64.89;98272.09;1732283;81;21032;-80
2022/03/18 03:20:10;;;;;;;21.15;14.87;;;;;;;0.87;65.04;98270.89;1745833;81;21013;-80
2022/03/18 03:22:36;;;;;;;22.73;14.07;;;;;;;0.87;65.35;98276.00;1764323;81;21003;-80
2022/03/18 03:25:02;;;;;;;18.00;13.45;;;;;;;0.85;65.61;98279.09;1755613;81;21008;-80
2022/03/18 03:27:29;;;;;;;20.50;12.78;;;;;;;0.84;65.67;98276.16;1733866;81;20941;-80
2022/03/18 03:29:59;;;;;;;19.60;13.22;;;;;;;0.83;65.75;98280.45;1734515;81;21039;-80
2022/03/18 03:32:27;;;;;;;20.23;13.85;;;;;;;0.84;65.93;98277.44;1733026;81;21032;-80
2022/03/18 03:34:55;;;;;;;19.85;13.70;;;;;;;0.84;65.89;98277.44;1728696;81;21009;-80
2022/03/18 03:37:21;;;;;;;16.75;12.95;;;;;;;0.85;66.18;98282.48;1735738;81;21418;-80
2022/03/18 03:39:47;;;;;;;18.73;13.45;;;;;;;0.85;66.23;98285.04;1734433;81;20957;-80
2022/03/18 03:42:13;;;;;;;18.48;14.05;;;;;;;0.86;66.41;98288.42;1757091;81;20972;-80
2022/03/18 03:44:39;;;;;;;24.85;15.78;;;;;;;0.86;66.06;98286.70;1685502;84;21423;-80
2022/03/18 03:47:05;;;;;;;19.85;14.68;;;;;;;0.84;66.12;98285.95;1763023;81;20991;-80
2022/03/18 03:49:30;;;;;;;27.65;18.55;;;;;;;0.85;66.14;98288.88;1739643;81;20969;-80
2022/03/18 03:51:56;;;;;;;29.37;19.35;;;;;;;0.85;66.17;98292.72;1741054;81;20973;-80
2022/03/18 03:54:22;;;;;;;34.98;22.90;;;;;;;0.86;66.00;98294.37;1763686;81;20972;-80
2022/03/18 03:56:48;;;;;;;29.40;20.48;;;;;;;0.88;65.95;98291.73;1762898;81;22080;-80
2022/03/18 03:59:14;;;;;;;35.50;21.85;;;;;;;0.89;65.71;98296.77;1745568;81;20957;-80
2022/03/18 04:01:40;;;;;;;30.60;19.32;;;;;;;0.90;65.69;98294.59;1739831;81;20965;-80
2022/03/18 04:04:05;;;;;;;27.20;18.90;;;;;;;0.86;65.54;98299.49;1734630;81;21000;-80
2022/03/18 04:06:32;;;;;;;27.67;19.32;;;;;;;0.84;65.74;98301.75;1740790;81;22032;-80
2022/03/18 04:08:57;;;;;;;27.48;18.12;;;;;;;0.82;65.49;98298.44;1752158;81;20961;-80
2022/03/18 04:11:23;;;;;;;27.48;18.23;;;;;;;0.81;65.73;98300.59;1754936;81;20956;-79
2022/03/18 04:13:49;;;;;;;25.62;17.35;;;;;;;0.81;65.82;98306.99;1734505;81;21071;-80
2022/03/18 04:16:15;;;;;;;23.05;16.37;;;;;;;0.82;65.89;98303.11;1749448;81;21081;-80
2022/03/18 04:18:41;;;;;;;25.40;17.37;;;;;;;0.82;65.93;98306.12;1682270;85;21368;-80
2022/03/18 04:21:07;;;;;;;21.20;15.05;;;;;;;0.83;66.22;98311.61;1758634;81;21020;-80
2022/03/18 04:23:33;;;;;;;20.35;14.65;;;;;;;0.80;66.17;98315.13;1773389;81;21012;-80
2022/03/18 04:25:59;;;;;;;19.65;15.08;;;;;;;0.81;66.44;98310.83;1754967;81;20964;-80
2022/03/18 04:28:24;;;;;;;21.30;15.13;;;;;;;0.80;66.44;98320.24;1746626;81;21047;-80
2022/03/18 04:30:50;;;;;;;20.32;15.85;;;;;;;0.81;66.53;98322.34;1753652;81;21047;-79
2022/03/18 04:33:16;;;;;;;23.80;15.70;;;;;;;0.81;66.71;98314.67;1766405;81;20933;-79
2022/03/18 04:35:42;;;;;;;21.05;15.75;;;;;;;0.80;66.77;98321.97;1737416;81;20921;-80
2022/03/18 04:38:07;;;;;;;42.23;27.60;;;;;;;0.78;66.94;98326.34;1766877;81;20996;-80
2022/03/18 04:40:33;;;;;;;37.08;25.72;;;;;;;0.75;66.45;98332.89;1759064;81;20996;-80
2022/03/18 04:42:59;;;;;;;42.88;25.62;;;;;;;0.73;66.53;98330.86;1744330;82;21367;-80
2022/03/18 04:45:25;;;;;;;33.20;22.10;;;;;;;0.73;66.40;98330.86;1755339;81;21011;-80
2022/03/18 04:47:51;;;;;;;34.27;22.30;;;;;;;0.72;66.55;98333.87;1742130;81;21052;-79
2022/03/18 04:50:17;;;;;;;27.87;18.17;;;;;;;0.71;66.45;98342.90;1756292;81;20996;-79
2022/03/18 04:52:42;;;;;;;35.65;22.10;;;;;;;0.68;66.63;98340.04;1755789;81;21076;-79
2022/03/18 04:55:09;;;;;;;35.83;22.67;;;;;;;0.69;66.42;98347.27;1752882;81;21372;-79
2022/03/18 04:57:35;;;;;;;35.98;24.80;;;;;;;0.67;66.31;98344.78;1742429;81;21380;-79
2022/03/18 05:00:04;;;;;;;36.15;24.40;;;;;;;0.64;66.44;98349.19;1718300;81;21024;-79
2022/03/18 05:02:30;;;;;;;38.65;24.10;;;;;;;0.62;66.46;98355.66;1734459;83;21052;-79
2022/03/18 05:04:56;;;;;;;39.18;23.87;;;;;;;0.63;66.62;98357.77;1689867;83;20960;-79
2022/03/18 05:07:22;;;;;;;38.90;24.60;;;;;;;0.60;66.69;98349.34;1734596;81;21047;-79
2022/03/18 05:09:48;;;;;;;32.67;20.97;;;;;;;0.59;66.77;98354.08;1732799;82;21001;-79
2022/03/18 05:12:16;;;;;;;28.60;20.72;;;;;;;0.60;67.13;98350.62;1743919;81;21395;-79
2022/03/18 05:14:41;;;;;;;30.88;20.85;;;;;;;0.63;67.03;98356.03;1735228;81;21089;-79
2022/03/18 05:17:09;;;;;;;34.67;21.42;;;;;;;0.65;67.20;98354.68;1744350;82;21387;-79
2022/03/18 05:19:36;;;;;;;35.80;22.62;;;;;;;0.64;67.21;98351.75;1708930;83;21014;-79
2022/03/18 05:22:02;;;;;;;32.03;21.73;;;;;;;0.65;67.25;98355.55;1749184;81;21437;-79
2022/03/18 05:24:29;;;;;;;34.83;22.65;;;;;;;0.66;67.49;98354.64;1742293;81;20949;-79
2022/03/18 05:26:55;;;;;;;41.02;25.52;;;;;;;0.69;67.53;98350.66;1761079;81;21343;-80
2022/03/18 05:29:21;;;;;;;40.65;25.45;;;;;;;0.72;67.53;98357.34;1747306;81;21012;-80
2022/03/18 05:31:47;;;;;;;45.55;28.65;;;;;;;0.72;67.37;98360.73;1741996;81;20965;-80
2022/03/18 05:34:13;;;;;;;44.60;27.93;;;;;;;0.74;67.29;98360.20;1751115;81;20988;-80
2022/03/18 05:36:40;;;;;;;43.48;28.05;;;;;;;0.75;67.30;98358.48;1757233;81;21075;-80
2022/03/18 05:39:06;;;;;;;42.73;26.52;;;;;;;0.79;67.42;98363.82;1758551;81;21336;-79
2022/03/18 05:41:32;;;;;;;45.12;27.93;;;;;;;0.83;67.77;98363.63;1750471;81;20954;-79
2022/03/18 05:43:58;;;;;;;37.30;24.72;;;;;;;0.89;67.74;98366.33;1753846;81;22412;-79
2022/03/18 05:46:24;;;;;;;37.98;26.55;;;;;;;0.96;68.04;98370.69;1735855;81;21036;-80
2022/03/18 05:48:49;;;;;;;40.50;25.30;;;;;;;1.03;68.28;98368.23;1744972;81;21069;-79
2022/03/18 05:51:15;;;;;;;37.53;26.40;;;;;;;1.07;68.32;98373.12;1743012;81;21060;-79
2022/03/18 05:53:41;;;;;;;38.78;25.82;;;;;;;1.11;68.00;98374.62;1751346;81;21082;-79
2022/03/18 05:58:51;;;;;;;40.17;25.80;;;;;;;1.18;67.61;98379.84;1747270;81;21384;-79
2022/03/18 06:01:16;;;;;;;47.50;27.93;;;;;;;1.26;67.90;98386.31;1729140;81;21347;-79
2022/03/18 06:03:42;;;;;;;45.45;27.65;;;;;;;1.29;68.30;98391.27;1732230;81;21013;-79
2022/03/18 06:06:08;;;;;;;49.80;29.40;;;;;;;1.28;68.37;98389.16;1744684;81;20989;-79
2022/03/18 06:14:02;;;;;;;42.70;27.35;;;;;;;1.43;67.85;98397.38;1752760;81;21368;-79
2022/03/18 06:16:30;;;;;;;54.58;35.85;;;;;;;1.48;67.87;98399.28;1755527;81;21009;-79
2022/03/18 06:18:56;;;;;;;105.60;63.25;;;;;;;1.52;68.01;98408.09;1742339;81;21472;-79
2022/03/18 06:21:22;;;;;;;84.47;53.58;;;;;;;1.50;67.69;98408.17;1746555;81;21445;-79
2022/03/18 06:23:48;;;;;;;91.60;60.75;;;;;;;1.52;67.76;98411.94;1741684;81;20972;-79
2022/03/18 06:26:14;;;;;;;66.50;49.42;;;;;;;1.54;68.09;98408.84;1745046;81;20949;-79
2022/03/18 06:28:39;;;;;;;62.53;44.80;;;;;;;1.57;67.87;98412.53;1739341;81;20996;-80
2022/03/18 06:31:06;;;;;;;63.80;43.05;;;;;;;1.62;67.66;98411.38;1749715;81;20981;-79
2022/03/18 06:33:35;;;;;;;60.28;40.38;;;;;;;1.67;67.57;98418.41;1739472;81;20948;-80
2022/03/18 06:36:01;;;;;;;56.33;37.93;;;;;;;1.74;67.73;98415.91;1705558;81;20987;-80
2022/03/18 06:38:27;;;;;;;52.65;36.70;;;;;;;1.84;67.42;98414.17;1727831;81;21008;-81
2022/03/18 06:40:53;;;;;;;49.93;36.00;;;;;;;1.91;67.22;98421.45;1755898;81;21031;-80
2022/03/18 06:43:18;;;;;;;53.58;35.98;;;;;;;1.97;66.98;98421.16;1759548;81;21403;-80
2022/03/18 06:45:44;;;;;;;57.50;37.00;;;;;;;2.03;66.84;98423.86;1741023;81;21400;-80
2022/03/18 06:48:10;;;;;;;57.08;36.77;;;;;;;2.11;66.47;98424.27;1741997;81;20999;-80
2022/03/18 06:50:36;;;;;;;65.78;40.35;;;;;;;2.20;66.02;98426.38;1724048;81;20948;-80
2022/03/18 06:53:02;;;;;;;60.45;39.58;;;;;;;2.29;66.44;98432.33;1749141;81;21033;-80
2022/03/18 06:55:27;;;;;;;57.40;37.53;;;;;;;2.38;66.59;98436.95;1745611;80;21023;-80
2022/03/18 06:57:53;;;;;;;55.95;37.67;;;;;;;2.47;66.41;98433.55;1741249;81;20937;-80
2022/03/18 07:00:19;;;;;;;55.17;35.38;;;;;;;2.56;66.20;98435.61;1741280;81;21427;-80
2022/03/18 07:02:45;;;;;;;57.93;37.90;;;;;;;2.59;66.13;98446.53;1742573;81;21272;-80
2022/03/18 07:05:12;;;;;;;53.10;33.08;;;;;;;2.63;65.99;98439.52;1749349;81;20992;-80
2022/03/18 07:07:38;;;;;;;52.13;32.88;;;;;;;2.70;65.66;98447.25;1687363;83;20968;-80
2022/03/18 07:10:04;;;;;;;50.78;32.42;;;;;;;2.71;65.46;98438.19;1748425;80;20952;-80
2022/03/18 07:12:30;;;;;;;44.48;31.55;;;;;;;2.77;64.98;98449.05;1752054;80;20932;-80
2022/03/18 07:14:56;;;;;;;52.15;33.20;;;;;;;2.88;65.13;98445.42;1760849;80;20972;-80
2022/03/18 07:20:09;;;;;;;53.02;36.95;;;;;;;3.09;65.42;98443.41;1759419;80;20980;-80
2022/03/18 07:22:35;;;;;;;54.73;34.67;;;;;;;3.21;65.15;98446.59;1760693;80;21091;-80
2022/03/18 07:25:01;;;;;;;54.85;35.10;;;;;;;3.31;64.89;98447.30;1761798;80;21044;-80
2022/03/18 07:27:27;;;;;;;54.73;37.17;;;;;;;3.44;64.72;98446.61;1747683;80;20996;-80
2022/03/18 07:29:52;;;;;;;45.98;32.88;;;;;;;3.53;64.94;98450.75;1740081;80;21435;-80
2022/03/18 07:32:18;;;;;;;50.45;34.05;;;;;;;3.65;65.15;98458.23;1738528;81;20976;-80
2022/03/18 07:34:44;;;;;;;52.30;33.65;;;;;;;3.77;64.78;98459.28;1736775;81;20984;-80
2022/03/18 07:37:10;;;;;;;53.20;35.90;;;;;;;3.89;64.96;98458.55;1736793;82;21277;-80
2022/03/18 07:39:35;;;;;;;51.83;34.70;;;;;;;3.97;63.99;98457.66;1744969;81;20948;-80
2022/03/18 07:42:01;;;;;;;52.10;35.55;;;;;;;4.07;63.97;98465.67;1756428;81;21382;-80
2022/03/18 07:44:27;;;;;;;56.50;37.45;;;;;;;4.12;63.44;98465.76;1760890;81;20973;-80
2022/03/18 07:46:53;;;;;;;61.30;38.95;;;;;;;4.18;63.63;98470.98;1740137;81;21328;-80
2022/03/18 07:49:19;;;;;;;55.08;37.20;;;;;;;4.26;63.85;98469.27;1741409;81;21327;-80
2022/03/18 07:51:44;;;;;;;56.42;38.20;;;;;;;4.35;63.95;98476.42;1746831;81;21094;-80
2022/03/18 07:54:10;;;;;;;65.83;43.78;;;;;;;4.38;62.97;98475.77;1738487;81;21008;-80
2022/03/18 07:56:36;;;;;;;63.02;43.58;;;;;;;4.43;62.98;98478.09;1735597;81;20969;-80
2022/03/18 07:59:02;;;;;;;43.42;30.50;;;;;;;4.52;63.41;98480.92;1748648;81;20933;-80
2022/03/18 08:01:29;;;;;;;54.80;36.53;;;;;;;4.60;62.46;98485.63;1749902;81;21368;-80
2022/03/18 08:03:55;;;;;;;53.60;38.00;;;;;;;4.59;62.67;98483.97;1744481;81;20998;-80
2022/03/18 08:06:21;;;;;;;54.18;36.55;;;;;;;4.70;62.77;98486.70;1754359;81;20929;-80
2022/03/18 08:08:47;;;;;;;49.45;34.83;;;;;;;4.80;62.05;98489.55;1748919;81;20952;-80
2022/03/18 08:11:13;;;;;;;55.75;38.25;;;;;;;4.84;62.16;98492.30;1744578;81;20976;-80
2022/03/18 08:13:39;;;;;;;51.80;35.58;;;;;;;4.92;62.72;98493.95;1722773;81;21392;-80
2022/03/18 08:16:06;;;;;;;46.92;32.23;;;;;;;5.00;62.44;98493.47;1758790;81;21095;-80
2022/03/18 08:18:32;;;;;;;45.65;29.95;;;;;;;5.04;61.79;98494.48;1749322;80;21347;-80
2022/03/18 08:20:58;;;;;;;53.23;35.88;;;;;;;5.07;60.59;98495.58;1747135;81;21024;-80
2022/03/18 08:23:27;;;;;;;55.15;37.70;;;;;;;5.00;59.92;98502.48;1748978;81;21107;-80
2022/03/18 08:25:53;;;;;;;56.70;36.38;;;;;;;4.95;59.88;98504.53;1723293;81;20981;-80
2022/03/18 08:28:21;;;;;;;53.75;35.43;;;;;;;4.92;59.68;98508.13;1742304;81;21008;-80
2022/03/18 08:30:47;;;;;;;49.48;35.08;;;;;;;4.92;59.92;98511.16;1739631;81;20969;-80
2022/03/18 08:33:13;;;;;;;47.83;33.08;;;;;;;4.85;59.35;98513.27;1734664;81;21385;-80
2022/03/18 08:35:39;;;;;;;53.17;35.10;;;;;;;4.77;59.19;98518.90;1750273;81;20956;-80
2022/03/18 08:38:07;;;;;;;53.95;36.93;;;;;;;4.71;59.15;98515.85;1687643;83;21012;-80
2022/03/18 08:40:34;;;;;;;50.60;33.85;;;;;;;4.73;59.76;98521.30;1748730;81;21039;-80
2022/03/18 08:43:03;;;;;;;55.65;34.80;;;;;;;4.83;60.07;98524.95;1751135;81;20949;-80
2022/03/18 08:45:29;;;;;;;50.75;31.97;;;;;;;4.86;59.45;98526.97;1742564;81;21013;-80
2022/03/18 08:47:56;;;;;;;57.08;37.15;;;;;;;4.84;59.04;98532.22;1748255;81;21084;-80
2022/03/18 08:50:22;;;;;;;52.83;35.73;;;;;;;4.87;59.67;98532.03;1748730;81;20994;-80
2022/03/18 08:52:53;;;;;;;51.00;33.80;;;;;;;4.94;59.30;98536.36;1743272;81;21036;-80
2022/03/18 08:55:20;;;;;;;52.55;35.80;;;;;;;5.00;59.70;98536.80;1725488;81;20980;-80
2022/03/18 08:57:45;;;;;;;50.52;32.63;;;;;;;5.09;59.66;98535.42;1730694;81;21344;-80
2022/03/18 09:00:15;;;;;;;46.98;32.50;;;;;;;5.25;59.96;98543.03;1755544;81;20949;-80
2022/03/18 09:02:43;;;;;;;57.70;39.25;;;;;;;5.34;59.38;98543.73;1744887;81;21029;-80
2022/03/18 09:05:09;;;;;;;49.00;34.08;;;;;;;5.33;59.10;98544.66;1743851;81;20997;-80
2022/03/18 09:07:35;;;;;;;50.03;34.55;;;;;;;5.33;58.52;98553.67;1757756;81;20984;-80
2022/03/18 09:10:02;;;;;;;51.92;36.33;;;;;;;5.30;58.94;98548.72;1759569;81;21000;-80
2022/03/18 09:12:28;;;;;;;46.88;32.98;;;;;;;5.36;59.15;98556.05;1754619;81;20949;-80
2022/03/18 09:14:54;;;;;;;34.70;23.75;;;;;;;5.38;59.01;98551.20;1763520;81;20964;-80
2022/03/18 09:17:21;;;;;;;38.60;28.45;;;;;;;5.46;58.59;98553.73;1746252;81;20969;-80
2022/03/18 09:19:48;;;;;;;42.95;31.73;;;;;;;5.48;58.38;98555.75;1756528;81;21036;-81
2022/03/18 09:22:16;;;;;;;41.80;30.90;;;;;;;5.49;59.15;98554.37;1739001;81;21059;-80
2022/03/18 09:24:42;;;;;;;46.18;33.48;;;;;;;5.69;59.66;98554.38;1746957;81;21435;-80
2022/03/18 09:27:09;;;;;;;41.45;28.85;;;;;;;5.83;59.60;98562.53;1727079;81;20992;-80
2022/03/18 09:29:37;;;;;;;44.25;32.28;;;;;;;5.98;59.02;98564.16;1766256;81;20996;-80
2022/03/18 09:32:06;;;;;;;49.23;35.75;;;;;;;6.00;58.49;98558.43;1684709;83;20992;-80
2022/03/18 09:34:32;;;;;;;44.60;31.27;;;;;;;6.08;58.66;98560.52;1707068;83;20957;-80
2022/03/18 09:36:58;;;;;;;44.03;31.17;;;;;;;6.18;58.42;98559.83;1707364;82;20957;-80
2022/03/18 09:39:26;;;;;;;41.85;31.80;;;;;;;6.30;58.61;98560.29;1709423;83;21036;-81
2022/03/18 09:41:54;;;;;;;44.25;31.27;;;;;;;6.40;58.60;98570.02;1701004;83;21084;-80
2022/03/18 09:44:20;;;;;;;41.13;31.35;;;;;;;6.50;58.26;98569.75;1686959;84;20985;-80
2022/03/18 09:46:48;;;;;;;42.58;32.20;;;;;;;6.55;58.17;98566.41;1685582;83;20969;-80
2022/03/18 09:49:15;;;;;;;37.23;29.10;;;;;;;6.53;58.39;98571.69;1774905;80;21402;-80
2022/03/18 09:51:45;;;;;;;42.43;30.92;;;;;;;6.52;58.35;98568.74;1755679;80;20944;-80
2022/03/18 09:54:12;;;;;;;40.45;31.30;;;;;;;6.50;58.73;98577.50;1741061;81;21430;-80
2022/03/18 09:56:44;;;;;;;43.23;29.75;;;;;;;6.50;58.50;98582.66;1747473;81;21019;-80
2022/03/18 09:59:10;;;;;;;43.40;31.05;;;;;;;6.45;58.19;98582.98;1737715;81;20945;-80
2022/03/18 10:01:39;;;;;;;41.65;29.98;;;;;;;6.45;57.90;98592.02;1740886;81;20957;-80
2022/03/18 10:04:07;;;;;;;37.28;28.23;;;;;;;6.46;58.05;98598.83;1735877;81;20991;-80
2022/03/18 10:06:34;;;;;;;39.95;29.50;;;;;;;6.56;58.67;98597.77;1744912;81;21056;-80
2022/03/18 10:09:00;;;;;;;37.63;30.45;;;;;;;6.70;58.56;98593.80;1744777;81;21281;-80
2022/03/18 10:11:33;;;;;;;38.23;28.83;;;;;;;6.77;58.15;98597.61;1755822;81;20980;-80
2022/03/18 10:14:07;;;;;;;;;;;;;;;6.84;58.11;98601.92;1754680;81;21020;-80
2022/03/18 10:16:39;;;;;;;34.65;26.52;;;;;;;6.90;56.60;98603.61;1749397;81;20368;-80
2022/03/18 10:19:12;;;;;;;40.78;30.40;;;;;;;6.95;57.61;98590.83;1746347;81;21047;-80
2022/03/18 10:22:00;;;;;;;;;;;;;;;7.06;57.71;98596.09;1750958;81;21019;-80
2022/03/18 10:24:37;;;;;;;40.03;28.73;;;;;;;7.15;57.56;98599.32;1741384;81;20095;-80
2022/03/18 10:27:19;;;;;;;40.80;32.28;;;;;;;7.19;57.45;98594.32;1745795;81;21056;-80
2022/03/18 10:29:53;;;;;;;38.85;29.52;;;;;;;7.21;57.09;98601.03;1741685;81;20977;-80
2022/03/18 10:32:22;;;;;;;39.63;31.48;;;;;;;7.31;56.67;98600.38;1747685;81;21040;-80
2022/03/18 10:37:48;;;;;;;37.28;29.02;;;;;;;7.44;57.03;98602.00;1751833;80;21431;-80
2022/03/18 10:40:17;;;;;;;42.15;30.88;;;;;;;7.52;56.58;98598.89;1706055;83;21015;-80
2022/03/18 10:43:02;;;;;;;41.75;31.27;;;;;;;7.52;56.73;98607.95;1751992;81;20998;-80
2022/03/18 10:45:28;;;;;;;35.13;26.33;;;;;;;7.54;55.81;98609.95;1721782;81;21377;-80
2022/03/18 10:47:54;;;;;;;36.60;26.50;;;;;;;7.52;55.19;98611.36;1736181;81;21005;-80
2022/03/18 10:50:26;;;;;;;30.17;22.45;;;;;;;7.54;54.64;98608.66;1727581;82;21373;-81
2022/03/18 10:53:06;;;;;;;37.10;27.45;;;;;;;7.51;54.70;98608.88;1737454;81;21498;-80
2022/03/18 10:55:39;;;;;;;41.90;32.40;;;;;;;7.53;55.48;98614.77;1722201;81;21421;-81
2022/03/18 10:58:16;;;;;;;42.35;31.77;;;;;;;7.59;55.71;98610.45;1712332;82;21049;-80
2022/03/18 11:00:46;;;;;;;40.00;30.82;;;;;;;7.58;55.35;98613.14;1749835;81;21024;-80
2022/03/18 11:03:13;;;;;;;42.30;31.42;;;;;;;7.61;56.00;98616.34;1730553;81;21029;-80
2022/03/18 11:05:42;;;;;;;38.00;28.25;;;;;;;7.68;55.69;98621.92;1693284;82;21371;-81
2022/03/18 11:08:22;;;;;;;41.00;31.37;;;;;;;7.72;54.91;98624.17;1702276;84;21012;-80
2022/03/18 11:13:53;;;;;;;38.48;30.23;;;;;;;7.74;54.87;98611.13;1738318;81;20943;-82
2022/03/18 11:16:28;;;;;;;37.75;28.27;;;;;;;7.83;55.08;98616.48;1751696;81;20977;-81
2022/03/18 11:18:54;;;;;;;41.88;30.52;;;;;;;7.90;54.02;98614.73;1755263;81;22042;-81
2022/03/18 11:21:21;;;;;;;37.88;30.05;;;;;;;7.92;54.12;98610.27;1734942;81;21243;-81
2022/03/18 11:23:48;;;;;;;36.05;27.58;;;;;;;7.98;54.45;98616.31;1741201;81;21051;-81
2022/03/18 11:26:16;;;;;;;36.80;26.77;;;;;;;8.02;54.38;98611.27;1731825;81;21474;-81
2022/03/18 11:28:43;;;;;;;35.78;28.30;;;;;;;8.08;54.38;98612.11;1747533;82;21032;-81
2022/03/18 11:31:11;;;;;;;39.53;30.72;;;;;;;8.10;53.59;98617.53;1746376;81;20976;-81
2022/03/18 11:33:38;;;;;;;37.53;28.90;;;;;;;8.07;53.28;98623.41;1746052;82;20968;-81
2022/03/18 11:36:11;;;;;;;40.00;30.62;;;;;;;8.05;53.21;98613.63;1747701;80;20996;-81
2022/03/18 11:38:54;;;;;;;41.33;30.32;;;;;;;8.08;53.40;98615.99;1682813;85;20981;-81
2022/03/18 11:41:20;;;;;;;42.23;29.98;;;;;;;8.13;53.70;98617.33;1731170;83;21084;-81
2022/03/18 11:43:51;;;;;;;39.40;31.27;;;;;;;8.25;53.38;98618.17;1731149;82;20989;-81
2022/03/18 11:46:22;;;;;;;42.95;31.33;;;;;;;8.33;52.51;98623.63;1731580;83;21086;-81
2022/03/18 11:49:05;;;;;;;40.92;30.10;;;;;;;8.21;51.56;98621.94;1731106;83;21415;-81
2022/03/18 11:51:40;;;;;;;36.40;28.38;;;;;;;8.15;51.91;98632.75;1731230;83;21060;-81
2022/03/18 11:54:10;;;;;;;37.30;29.65;;;;;;;8.18;52.63;98626.05;1736149;83;21095;-81
2022/03/18 11:56:45;;;;;;;38.20;29.05;;;;;;;8.22;52.74;98622.76;1658918;86;21056;-81